Detall de PIREP

Printer-friendly versionPDF version

[2013/12/13 16:18:00]
Flight IATA:CT2314
Pilot Number:044
Company ICAO:CAT
Aircraft Type:BE20/A
PAX:6
Departing Airport: LIEA
Destination Airport: LIPZ
Alternate Airport:LIPX
Online: VATSIM
Route:MINKA L5 ROMPO Q125 ELB L12 FRZ M167 Y504 ROVIG
Flight Level:F180
No Slew and time accel
No pause
Crash detect
Detect pilot in Cockpit between each 30 and 45 minutes
16:18 Zero fuel Weight: 9316 Lbs, Fuel Weight: 2433 Lbs
16:18 VATSIM:LIEA 131550Z 27002KT 9999 FEW020 13/10 Q1026
16:18 VATSIM:LIPZ 131550Z VRB02KT 0050 R04R/0300N FG BKN002 03/02 Q1024
16:18 VOICE CATALONIAN
16:18 Parking Brakes off
16:22 Take-off
16:22 Take off Weight: 11733 Lbs
16:22 Wind: 270º @ 002 Knots Heading: 202º
16:22 POS N40º 37´ 48´´ E008º 17´ 23´´
16:22 Flaps:1 at 132 Knots
16:22 Gear Up: 131 Knots
16:23 Flaps:0 at 147 Knots
16:37 Wind:309º@003 Knots Heading: 067º Ground Speed: 196 Knots Altitude 14737 ft
16:40 TOC
16:40 Fuel Weight: 2199 Lb
16:52 Wind:014º@002 Knots Heading: 035º Ground Speed: 243 Knots Altitude 18346 ft
17:07 Wind:259º@002 Knots Heading: 014º Ground Speed: 246 Knots Altitude 18343 ft
17:22 Wind:112º@005 Knots Heading: 018º Ground Speed: 245 Knots Altitude 18346 ft
17:37 Wind:240º@007 Knots Heading: 040º Ground Speed: 252 Knots Altitude 18353 ft
17:43 TOD
17:43 Fuel Weight: 1532 Lb
17:52 Wind:227º@000 Knots Heading: 019º Ground Speed: 229 Knots Altitude 7221 ft
18:00 Flaps:1 at 163 Knots
18:00 Gear Down: 125 Knots
18:01 Flaps:2 at 125 Knots
18:07 Wind:092º@001 Knots Heading: 041º Ground Speed: 114 Knots Altitude 154 ft
18:07 TouchDown:Rate -152 ft/min Speed: 109 Knots
18:07 VATSIM:LIPZ 131750Z VRB02KT 0050 R04R/0250N FG BKN002 03/03 Q1024
18:07 Land
18:07 Wind:092º@000 Knots
18:07 Heading: 042º
18:07 Flight Duration: 01:45
18:07 Landing Weight: 10724 Lbs
18:07 POS N45º 30´ 20´´ E012º 21´ 09´´
18:10 Parking brakes on
18:10 Block to Block Duration: 01:52
18:10 Final Fuel: 1395 Lbls
18:10 Spent Fuel: 1038 Lbls
18:10 Flight Length: 336 NM
18:10 TOD Land Length: 73 NM

Exportar CSV

Powered by Drupal - Modified by Danger4k